createdAt,value
2023-02-05T00:00:48.248Z,-0.40
2023-02-05T00:03:15.036Z,-0.40
2023-02-05T00:05:41.807Z,-0.40
2023-02-05T00:08:08.652Z,-0.50
2023-02-05T00:10:35.841Z,-0.50
2023-02-05T00:13:04.937Z,-0.60
2023-02-05T00:15:32.160Z,-0.60
2023-02-05T00:18:01.367Z,-0.60
2023-02-05T00:20:28.091Z,-0.60
2023-02-05T00:22:57.605Z,-0.70
2023-02-05T00:25:24.357Z,-0.70
2023-02-05T00:27:53.573Z,-0.70
2023-02-05T00:30:20.373Z,-0.70
2023-02-05T00:32:47.318Z,-0.70
2023-02-05T00:35:14.086Z,-0.80
2023-02-05T00:37:40.802Z,-0.70
2023-02-05T00:40:07.928Z,-0.80
2023-02-05T00:42:34.776Z,-0.80
2023-02-05T00:45:01.542Z,-0.80
2023-02-05T00:47:28.351Z,-0.80
2023-02-05T00:49:55.184Z,-0.90
2023-02-05T00:52:21.975Z,-0.90
2023-02-05T00:54:48.705Z,-0.90
2023-02-05T00:57:15.540Z,-0.90
2023-02-05T00:59:42.281Z,-0.90
2023-02-05T01:02:09.070Z,-0.90
2023-02-05T01:04:36.039Z,-1.00
2023-02-05T01:07:02.726Z,-1.00
2023-02-05T01:09:29.563Z,-1.00
2023-02-05T01:11:56.363Z,-1.10
2023-02-05T01:14:23.106Z,-1.10
2023-02-05T01:16:49.973Z,-1.10
2023-02-05T01:19:16.927Z,-1.10
2023-02-05T01:21:43.687Z,-1.10
2023-02-05T01:24:13.896Z,-1.10
2023-02-05T01:26:40.603Z,-1.10
2023-02-05T01:29:07.359Z,-1.20
2023-02-05T01:31:34.265Z,-1.20
2023-02-05T01:34:01.135Z,-1.20
2023-02-05T01:36:27.875Z,-1.20
2023-02-05T01:38:54.740Z,-1.20
2023-02-05T01:41:24.190Z,-1.20
2023-02-05T01:44:23.250Z,-1.30
2023-02-05T01:46:54.063Z,-1.20
2023-02-05T01:49:35.443Z,-1.20
2023-02-05T01:52:09.648Z,-1.20
2023-02-05T01:54:41.386Z,-1.20
2023-02-05T01:57:13.070Z,-1.20
2023-02-05T01:59:41.741Z,-1.20
2023-02-05T02:02:10.960Z,-1.20
2023-02-05T02:04:41.082Z,-1.20
2023-02-05T02:07:10.916Z,-1.30
2023-02-05T02:09:39.739Z,-1.20
2023-02-05T02:12:08.633Z,-1.30
2023-02-05T02:14:37.301Z,-1.30
2023-02-05T02:17:06.206Z,-1.20
2023-02-05T02:19:33.550Z,-1.20
2023-02-05T02:22:06.250Z,-1.10
2023-02-05T02:24:35.827Z,-1.10
2023-02-05T02:27:32.128Z,-1.10
2023-02-05T02:30:14.120Z,-1.00
2023-02-05T02:32:46.832Z,-1.00
2023-02-05T02:35:41.646Z,-1.00
2023-02-05T02:38:20.781Z,-1.00
2023-02-05T02:40:54.376Z,-0.90
2023-02-05T02:43:34.348Z,-0.90
2023-02-05T02:46:11.960Z,-0.90
2023-02-05T02:48:41.639Z,-0.90
2023-02-05T02:51:14.376Z,-0.80
2023-02-05T02:53:45.242Z,-0.80
2023-02-05T02:56:13.661Z,-0.80
2023-02-05T02:58:49.425Z,-0.80
2023-02-05T03:01:19.553Z,-0.90
2023-02-05T03:03:53.770Z,-0.90
2023-02-05T03:06:22.084Z,-0.90
2023-02-05T03:09:32.087Z,-0.90
2023-02-05T03:12:01.568Z,-0.90
2023-02-05T03:14:28.479Z,-1.00
2023-02-05T03:16:55.241Z,-1.00
2023-02-05T03:19:22.071Z,-1.00
2023-02-05T03:21:54.640Z,-0.90
2023-02-05T03:24:21.435Z,-0.90
2023-02-05T03:26:50.257Z,-0.90
2023-02-05T03:29:21.438Z,-0.90
2023-02-05T03:32:08.538Z,-0.90
2023-02-05T03:35:03.727Z,-1.00
2023-02-05T03:37:55.250Z,-0.90
2023-02-05T03:40:24.783Z,-0.90
2023-02-05T03:43:16.924Z,-0.90
2023-02-05T03:46:07.047Z,-1.00
2023-02-05T03:48:46.414Z,-1.10
2023-02-05T03:51:37.766Z,-1.20
2023-02-05T03:54:46.175Z,-1.20
2023-02-05T03:57:22.943Z,-1.10
2023-02-05T03:59:50.786Z,-1.20
2023-02-05T04:02:18.406Z,-1.20
2023-02-05T04:04:45.280Z,-1.20
2023-02-05T04:07:12.133Z,-1.20
2023-02-05T04:09:39.109Z,-1.30
2023-02-05T04:12:06.111Z,-1.20
2023-02-05T04:14:32.853Z,-1.20
2023-02-05T04:16:59.691Z,-1.20
2023-02-05T04:19:26.504Z,-1.20
2023-02-05T04:21:53.328Z,-1.40
2023-02-05T04:24:20.421Z,-1.40
2023-02-05T04:26:47.152Z,-1.40
2023-02-05T04:29:13.927Z,-1.40
2023-02-05T04:31:40.855Z,-1.40
2023-02-05T04:34:10.173Z,-1.40
2023-02-05T04:36:37.604Z,-1.50
2023-02-05T04:39:04.471Z,-1.50
2023-02-05T04:41:31.298Z,-1.60
2023-02-05T04:43:58.054Z,-1.60
2023-02-05T04:46:24.899Z,-1.60
2023-02-05T04:48:51.619Z,-1.70
2023-02-05T04:51:18.361Z,-1.70
2023-02-05T04:53:45.269Z,-1.70
2023-02-05T04:56:17.457Z,-1.70
2023-02-05T04:58:45.003Z,-1.80
2023-02-05T05:01:14.072Z,-1.70
2023-02-05T05:03:41.438Z,-1.70
2023-02-05T05:06:08.772Z,-1.70
2023-02-05T05:08:36.911Z,-1.80
2023-02-05T05:11:13.166Z,-1.70
2023-02-05T05:13:40.841Z,-1.70
2023-02-05T05:16:08.521Z,-1.70
2023-02-05T05:18:35.531Z,-1.80
2023-02-05T05:21:02.801Z,-1.80
2023-02-05T05:23:32.491Z,-1.80
2023-02-05T05:25:59.434Z,-1.80
2023-02-05T05:28:26.254Z,-1.90
2023-02-05T05:30:53.078Z,-1.90
2023-02-05T05:33:40.219Z,-1.90
2023-02-05T05:36:08.365Z,-1.80
2023-02-05T05:38:35.176Z,-1.80
2023-02-05T05:41:02.081Z,-1.80
2023-02-05T05:43:29.357Z,-1.90
2023-02-05T05:45:56.342Z,-1.90
2023-02-05T05:48:23.346Z,-1.90
2023-02-05T05:50:50.271Z,-2.00
2023-02-05T05:53:17.855Z,-2.00
2023-02-05T05:55:44.609Z,-2.00
2023-02-05T05:58:11.960Z,-2.10
2023-02-05T06:00:42.846Z,-2.00
2023-02-05T06:03:13.172Z,-2.10
2023-02-05T06:05:42.756Z,-2.10
2023-02-05T06:08:09.518Z,-2.10
2023-02-05T06:10:36.254Z,-2.10
2023-02-05T06:13:03.038Z,-2.20
2023-02-05T06:15:29.773Z,-2.20
2023-02-05T06:17:56.486Z,-2.20
2023-02-05T06:20:23.432Z,-2.20
2023-02-05T06:22:50.292Z,-2.20
2023-02-05T06:25:17.255Z,-2.20
2023-02-05T06:27:44.218Z,-2.20
2023-02-05T06:30:11.827Z,-2.30
2023-02-05T06:32:38.583Z,-2.30
2023-02-05T06:35:05.959Z,-2.30
2023-02-05T06:37:46.797Z,-2.30
2023-02-05T06:40:15.138Z,-2.30
2023-02-05T06:42:41.877Z,-2.30
2023-02-05T06:45:09.247Z,-2.40
2023-02-05T06:47:37.770Z,-2.40
2023-02-05T06:50:08.136Z,-2.40
2023-02-05T06:52:37.346Z,-2.40
2023-02-05T06:55:04.551Z,-2.30
2023-02-05T06:57:31.332Z,-2.30
2023-02-05T06:59:58.498Z,-2.30
2023-02-05T07:02:25.275Z,-2.30
2023-02-05T07:04:52.082Z,-2.30
2023-02-05T07:07:18.824Z,-2.30
2023-02-05T07:09:45.586Z,-2.30
2023-02-05T07:12:12.398Z,-2.30
2023-02-05T07:14:40.590Z,-2.30
2023-02-05T07:17:08.120Z,-2.30
2023-02-05T07:19:36.143Z,-2.20
2023-02-05T07:22:03.064Z,-2.10
2023-02-05T07:24:29.988Z,-2.10
2023-02-05T07:26:56.849Z,-2.00
2023-02-05T07:29:23.586Z,-1.90
2023-02-05T07:31:51.410Z,-1.80
2023-02-05T07:34:18.473Z,-1.70
2023-02-05T07:36:45.215Z,-1.50
2023-02-05T07:39:11.985Z,-1.50
2023-02-05T07:41:38.787Z,-1.50
2023-02-05T07:44:05.693Z,-1.50
2023-02-05T07:46:32.574Z,-1.60
2023-02-05T07:48:59.455Z,-1.50
2023-02-05T07:51:28.156Z,-1.40
2023-02-05T07:53:55.271Z,-1.40
2023-02-05T07:56:22.097Z,-1.30
2023-02-05T07:58:50.264Z,-1.30
2023-02-05T08:01:17.576Z,-1.10
2023-02-05T08:03:44.396Z,-0.80
2023-02-05T08:06:15.420Z,-0.60
2023-02-05T08:08:42.675Z,-0.60
2023-02-05T08:11:14.621Z,-0.60
2023-02-05T08:13:43.905Z,-0.50
2023-02-05T08:16:13.545Z,-0.30
2023-02-05T08:18:40.366Z,-0.20
2023-02-05T08:21:07.205Z,-0.30
2023-02-05T08:23:35.886Z,-0.30
2023-02-05T08:26:02.649Z,-0.30
2023-02-05T08:28:29.775Z,-0.30
2023-02-05T08:30:57.038Z,-0.30
2023-02-05T08:33:24.077Z,-0.20
2023-02-05T08:35:51.107Z,-0.10
2023-02-05T08:38:17.992Z,0.00
2023-02-05T08:40:47.575Z,0.00
2023-02-05T08:43:14.503Z,0.10
2023-02-05T08:45:46.953Z,0.10
2023-02-05T08:48:14.147Z,0.20
2023-02-05T08:50:41.013Z,0.40
2023-02-05T08:53:07.712Z,0.40
2023-02-05T08:55:34.652Z,0.50
2023-02-05T08:58:01.602Z,0.60
2023-02-05T09:00:31.107Z,0.70
2023-02-05T09:02:57.878Z,0.70
2023-02-05T09:05:25.653Z,0.80
2023-02-05T09:07:52.372Z,0.90
2023-02-05T09:10:19.191Z,0.90
2023-02-05T09:12:47.582Z,0.90
2023-02-05T09:15:14.434Z,0.90
2023-02-05T09:17:41.243Z,0.90
2023-02-05T09:20:08.819Z,1.00
2023-02-05T09:22:38.304Z,1.00
2023-02-05T09:25:08.167Z,1.10
2023-02-05T09:27:34.984Z,1.20
2023-02-05T09:30:01.926Z,1.20
2023-02-05T09:32:28.768Z,1.30
2023-02-05T09:34:55.506Z,1.40
2023-02-05T09:37:22.587Z,1.40
2023-02-05T09:42:47.002Z,1.60
2023-02-05T09:45:16.876Z,1.60
2023-02-05T09:48:23.243Z,1.50
2023-02-05T09:50:50.508Z,1.50
2023-02-05T09:53:21.438Z,1.40
2023-02-05T09:55:49.409Z,1.40
2023-02-05T09:58:21.376Z,1.40
2023-02-05T10:01:14.531Z,1.40
2023-02-05T10:03:48.039Z,1.40
2023-02-05T10:06:30.135Z,1.30
2023-02-05T10:09:18.513Z,1.40
2023-02-05T10:12:22.580Z,1.50
2023-02-05T10:15:08.247Z,1.70
2023-02-05T10:17:52.901Z,1.80
2023-02-05T10:20:34.268Z,1.90
2023-02-05T10:23:37.999Z,1.80
2023-02-05T10:26:18.397Z,1.80
2023-02-05T10:32:33.157Z,1.80
2023-02-05T10:35:08.983Z,1.80
2023-02-05T10:37:39.193Z,1.80
2023-02-05T10:40:23.461Z,1.90
2023-02-05T10:43:06.232Z,1.90
2023-02-05T10:45:34.021Z,1.90
2023-02-05T10:48:18.783Z,2.00
2023-02-05T10:51:02.425Z,2.00
2023-02-05T10:53:30.410Z,2.00
2023-02-05T10:55:59.303Z,2.10
2023-02-05T10:58:46.965Z,2.10
2023-02-05T11:01:19.262Z,2.10
2023-02-05T11:04:03.972Z,2.20
2023-02-05T11:06:32.834Z,2.20
2023-02-05T11:08:59.742Z,2.20
2023-02-05T11:11:29.697Z,2.20
2023-02-05T11:14:07.378Z,2.30
2023-02-05T11:16:43.033Z,2.30
2023-02-05T11:19:28.031Z,2.30
2023-02-05T11:21:59.063Z,2.30
2023-02-05T11:24:37.510Z,2.40
2023-02-05T11:27:24.364Z,2.40
2023-02-05T11:29:51.323Z,2.40
2023-02-05T11:32:21.461Z,2.50
2023-02-05T11:34:48.845Z,2.50
2023-02-05T11:37:18.510Z,2.50
2023-02-05T11:39:47.098Z,2.50
2023-02-05T11:42:27.942Z,2.60
2023-02-05T11:45:04.817Z,2.60
2023-02-05T11:47:39.535Z,2.50
2023-02-05T11:50:18.980Z,2.50
2023-02-05T11:52:46.122Z,2.50
2023-02-05T11:55:36.027Z,2.50
2023-02-05T11:58:06.761Z,2.50
2023-02-05T12:00:38.109Z,2.50
2023-02-05T12:03:15.855Z,2.50
2023-02-05T12:06:00.581Z,2.50
2023-02-05T12:08:36.734Z,2.50
2023-02-05T12:11:32.076Z,2.50
2023-02-05T12:14:42.077Z,2.60
2023-02-05T12:17:33.234Z,2.70
2023-02-05T12:20:30.977Z,2.80
2023-02-05T12:23:13.488Z,2.70
2023-02-05T12:25:52.514Z,2.70
2023-02-05T12:28:27.929Z,2.70
2023-02-05T12:31:12.814Z,2.70
2023-02-05T12:34:01.056Z,2.70
2023-02-05T12:36:39.371Z,2.70
2023-02-05T12:39:25.265Z,2.70
2023-02-05T12:42:24.845Z,2.70
2023-02-05T12:45:11.761Z,2.70
2023-02-05T12:48:04.611Z,2.70
2023-02-05T12:51:03.638Z,2.70
2023-02-05T12:54:00.849Z,2.70
2023-02-05T12:56:49.151Z,2.70
2023-02-05T12:59:42.287Z,2.80
2023-02-05T13:02:49.953Z,2.70
2023-02-05T13:05:31.356Z,2.70
2023-02-05T13:08:31.263Z,2.70
2023-02-05T13:11:53.703Z,2.70
2023-02-05T13:14:47.544Z,2.60
2023-02-05T13:17:30.690Z,2.60
2023-02-05T13:23:22.709Z,2.60
2023-02-05T13:26:12.224Z,2.60
2023-02-05T13:29:03.337Z,2.60
2023-02-05T13:35:10.898Z,2.60
2023-02-05T13:38:31.914Z,2.60
2023-02-05T13:41:49.174Z,2.60
2023-02-05T13:44:58.471Z,2.60
2023-02-05T13:50:56.050Z,2.60
2023-02-05T13:53:49.523Z,2.60
2023-02-05T13:56:22.154Z,2.60
2023-02-05T13:58:56.147Z,2.60
2023-02-05T14:01:24.964Z,2.50
2023-02-05T14:04:26.093Z,2.60
2023-02-05T14:07:02.946Z,2.50
2023-02-05T14:09:44.668Z,2.60
2023-02-05T14:12:21.105Z,2.50
2023-02-05T14:15:16.597Z,2.50
2023-02-05T14:17:43.138Z,2.50
2023-02-05T14:20:24.771Z,2.60
2023-02-05T14:23:01.805Z,2.60
2023-02-05T14:25:37.396Z,2.60
2023-02-05T14:28:16.284Z,2.60
2023-02-05T14:31:03.426Z,2.60
2023-02-05T14:33:40.921Z,2.60
2023-02-05T14:36:16.688Z,2.60
2023-02-05T14:38:52.888Z,2.60
2023-02-05T14:41:27.043Z,2.60
2023-02-05T14:44:13.248Z,2.60
2023-02-05T14:46:44.019Z,2.50
2023-02-05T14:49:24.392Z,2.50
2023-02-05T14:52:00.614Z,2.50
2023-02-05T14:54:49.483Z,2.40
2023-02-05T14:57:25.405Z,2.40
2023-02-05T14:59:56.798Z,2.40
2023-02-05T15:02:57.500Z,2.40
2023-02-05T15:05:45.339Z,2.30
2023-02-05T15:08:21.059Z,2.30
2023-02-05T15:10:51.309Z,2.30
2023-02-05T15:13:19.524Z,2.30
2023-02-05T15:16:10.829Z,2.30
2023-02-05T15:18:49.168Z,2.30
2023-02-05T15:21:29.607Z,2.30
2023-02-05T15:24:05.230Z,2.40
2023-02-05T15:27:10.274Z,2.30
2023-02-05T15:29:36.777Z,2.30
2023-02-05T15:32:08.213Z,2.30
2023-02-05T15:34:41.418Z,2.30
2023-02-05T15:37:19.690Z,2.20
2023-02-05T15:39:59.455Z,2.30
2023-02-05T15:42:47.436Z,2.30
2023-02-05T15:45:33.019Z,2.30
2023-02-05T15:48:12.077Z,2.30
2023-02-05T15:50:49.206Z,2.30
2023-02-05T15:53:27.513Z,2.30
2023-02-05T15:55:54.082Z,2.20
2023-02-05T15:58:24.164Z,2.20
2023-02-05T16:00:50.969Z,2.30
2023-02-05T16:03:31.092Z,2.20
2023-02-05T16:05:57.801Z,2.20
2023-02-05T16:08:24.696Z,2.40
2023-02-05T16:10:53.656Z,2.50
2023-02-05T16:13:20.225Z,2.50
2023-02-05T16:16:02.181Z,2.50
2023-02-05T16:18:49.440Z,2.50
2023-02-05T16:21:23.451Z,2.40
2023-02-05T16:23:57.761Z,2.30
2023-02-05T16:26:32.539Z,2.30
2023-02-05T16:29:11.673Z,2.30
2023-02-05T16:31:47.121Z,2.30
2023-02-05T16:34:18.086Z,2.30
2023-02-05T16:36:48.084Z,2.20
2023-02-05T16:39:23.196Z,2.20
2023-02-05T16:42:09.236Z,2.30
2023-02-05T16:44:38.532Z,2.20
2023-02-05T16:47:18.682Z,2.10
2023-02-05T16:49:46.945Z,2.20
2023-02-05T16:52:34.626Z,2.10
2023-02-05T16:55:07.158Z,2.10
2023-02-05T16:57:38.724Z,2.10
2023-02-05T17:00:26.082Z,2.10
2023-02-05T17:02:57.980Z,2.10
2023-02-05T17:05:34.501Z,2.00
2023-02-05T17:08:07.204Z,2.00
2023-02-05T17:10:52.116Z,2.00
2023-02-05T17:13:41.480Z,2.00
2023-02-05T17:16:28.051Z,1.90
2023-02-05T17:19:00.621Z,2.00
2023-02-05T17:21:27.136Z,2.10
2023-02-05T17:23:54.818Z,2.00
2023-02-05T17:26:21.452Z,1.90
2023-02-05T17:28:54.352Z,2.00
2023-02-05T17:31:21.657Z,2.00
2023-02-05T17:33:50.862Z,2.00
2023-02-05T17:36:17.935Z,2.00
2023-02-05T17:38:45.048Z,2.00
2023-02-05T17:41:20.337Z,2.10
2023-02-05T17:43:46.869Z,2.30
2023-02-05T17:46:14.555Z,2.30
2023-02-05T17:48:41.496Z,2.30
2023-02-05T17:51:18.871Z,2.30
2023-02-05T17:53:45.424Z,2.20
2023-02-05T17:56:12.656Z,2.10
2023-02-05T17:58:39.536Z,2.00
2023-02-05T18:01:06.284Z,2.00
2023-02-05T18:03:32.890Z,2.10
2023-02-05T18:05:59.889Z,2.00
2023-02-05T18:08:26.711Z,2.10
2023-02-05T18:10:53.512Z,2.10
2023-02-05T18:13:20.166Z,2.10
2023-02-05T18:15:46.898Z,2.00
2023-02-05T18:18:13.587Z,2.10
2023-02-05T18:20:40.304Z,2.20
2023-02-05T18:23:07.018Z,2.30
2023-02-05T18:25:33.845Z,2.20
2023-02-05T18:28:00.616Z,2.10
2023-02-05T18:30:27.269Z,2.10
2023-02-05T18:32:54.049Z,2.00
2023-02-05T18:35:20.693Z,2.10
2023-02-05T18:37:47.315Z,2.10
2023-02-05T18:40:14.118Z,2.00
2023-02-05T18:42:41.409Z,2.00
2023-02-05T18:45:08.805Z,2.00
2023-02-05T18:47:35.494Z,2.00
2023-02-05T18:50:02.197Z,2.00
2023-02-05T18:52:28.927Z,2.00
2023-02-05T18:54:55.720Z,1.90
2023-02-05T18:57:22.750Z,1.90
2023-02-05T18:59:49.573Z,1.90
2023-02-05T19:02:16.326Z,1.90
2023-02-05T19:04:43.078Z,2.00
2023-02-05T19:07:09.977Z,1.90
2023-02-05T19:09:36.750Z,1.90
2023-02-05T19:12:03.593Z,1.90
2023-02-05T19:14:30.476Z,2.00
2023-02-05T19:16:57.100Z,2.00
2023-02-05T19:19:25.482Z,2.10
2023-02-05T19:21:54.622Z,2.00
2023-02-05T19:24:21.897Z,2.00
2023-02-05T19:26:49.156Z,2.00
2023-02-05T19:29:18.030Z,2.00
2023-02-05T19:31:45.198Z,1.90
2023-02-05T19:34:12.640Z,1.90
2023-02-05T19:36:39.902Z,1.90
2023-02-05T19:39:09.156Z,1.90
2023-02-05T19:41:36.795Z,1.90
2023-02-05T19:44:06.869Z,1.90
2023-02-05T19:46:37.427Z,1.90
2023-02-05T19:49:07.328Z,1.90
2023-02-05T19:51:34.474Z,1.90
2023-02-05T19:54:01.927Z,1.90
2023-02-05T19:56:28.991Z,1.90
2023-02-05T19:58:55.946Z,1.90
2023-02-05T20:01:28.417Z,1.90
2023-02-05T20:03:58.461Z,1.90
2023-02-05T20:06:30.003Z,1.90
2023-02-05T20:08:56.915Z,1.90
2023-02-05T20:11:24.081Z,1.90
2023-02-05T20:13:51.199Z,1.90
2023-02-05T20:16:20.941Z,1.90
2023-02-05T20:18:52.802Z,1.90
2023-02-05T20:21:20.338Z,1.90
2023-02-05T20:23:48.517Z,1.80
2023-02-05T20:26:16.659Z,1.80
2023-02-05T20:28:43.809Z,1.90
2023-02-05T20:31:13.644Z,2.00
2023-02-05T20:33:40.487Z,1.90
2023-02-05T20:36:09.254Z,1.90
2023-02-05T20:38:36.649Z,1.80
2023-02-05T20:41:17.906Z,1.80
2023-02-05T20:43:44.845Z,1.80
2023-02-05T20:46:11.699Z,1.80
2023-02-05T20:48:38.955Z,1.80
2023-02-05T20:51:12.489Z,1.80
2023-02-05T20:53:40.260Z,1.80
2023-02-05T20:56:09.695Z,1.80
2023-02-05T20:58:37.164Z,1.90
2023-02-05T21:01:19.297Z,1.90
2023-02-05T21:03:51.550Z,2.00
2023-02-05T21:06:19.797Z,1.90
2023-02-05T21:08:48.881Z,1.80
2023-02-05T21:11:16.759Z,1.90
2023-02-05T21:13:45.391Z,1.90
2023-02-05T21:16:12.930Z,1.90
2023-02-05T21:18:40.146Z,1.80
2023-02-05T21:21:12.858Z,1.80
2023-02-05T21:23:40.220Z,1.70
2023-02-05T21:26:07.392Z,1.70
2023-02-05T21:28:34.530Z,1.80
2023-02-05T21:31:05.615Z,1.80
2023-02-05T21:33:32.528Z,1.80
2023-02-05T21:36:07.548Z,1.70
2023-02-05T21:38:38.976Z,1.80
2023-02-05T21:41:07.997Z,1.70
2023-02-05T21:43:34.837Z,1.80
2023-02-05T21:46:03.749Z,1.80
2023-02-05T21:48:30.573Z,1.80
2023-02-05T21:50:57.347Z,1.80
2023-02-05T21:53:24.037Z,1.90
2023-02-05T21:55:50.770Z,1.90
2023-02-05T21:58:17.492Z,1.90
2023-02-05T22:00:44.284Z,1.90
2023-02-05T22:03:10.985Z,1.90
2023-02-05T22:05:37.758Z,1.80
2023-02-05T22:08:04.847Z,1.80
2023-02-05T22:10:31.580Z,1.80
2023-02-05T22:12:58.312Z,1.90
2023-02-05T22:15:25.285Z,1.80
2023-02-05T22:17:52.019Z,1.80
2023-02-05T22:20:18.961Z,1.90
2023-02-05T22:22:45.689Z,1.80
2023-02-05T22:25:12.551Z,1.70
2023-02-05T22:27:39.700Z,1.80
2023-02-05T22:30:07.050Z,1.80
2023-02-05T22:32:33.868Z,1.70
2023-02-05T22:35:00.614Z,1.70
2023-02-05T22:37:27.360Z,1.70
2023-02-05T22:39:54.808Z,1.70
2023-02-05T22:42:21.474Z,1.70
2023-02-05T22:44:48.246Z,1.80
2023-02-05T22:47:14.937Z,1.70
2023-02-05T22:49:41.886Z,1.70
2023-02-05T22:52:08.823Z,1.70
2023-02-05T22:54:35.678Z,1.70
2023-02-05T22:57:02.423Z,1.70
2023-02-05T22:59:29.205Z,1.80
2023-02-05T23:01:55.862Z,1.70
2023-02-05T23:04:22.816Z,1.70
2023-02-05T23:06:49.569Z,1.60
2023-02-05T23:09:18.339Z,1.70
2023-02-05T23:11:45.754Z,1.70
2023-02-05T23:14:14.729Z,1.60
2023-02-05T23:16:43.510Z,1.60
2023-02-05T23:19:21.053Z,1.70
2023-02-05T23:21:48.780Z,1.60
2023-02-05T23:24:16.582Z,1.60
2023-02-05T23:26:46.144Z,1.50
2023-02-05T23:29:14.595Z,1.50
2023-02-05T23:31:42.001Z,1.50
2023-02-05T23:34:08.700Z,1.60
2023-02-05T23:36:35.462Z,1.60
2023-02-05T23:39:02.359Z,1.50
2023-02-05T23:41:29.105Z,1.50
2023-02-05T23:43:55.858Z,1.50
2023-02-05T23:46:22.601Z,1.50
2023-02-05T23:48:49.310Z,1.50
2023-02-05T23:51:16.022Z,1.50
2023-02-05T23:53:42.720Z,1.50
2023-02-05T23:56:09.364Z,1.50
2023-02-05T23:58:36.033Z,1.50
